Fort McPherson, Canada
Current Conditions -  °F | °C
As of 1:00 PM on Sunday 25 Jan 2015 (Local Time) from CYKD Reporting Station
Light Snow Light Snow  
Wind Chill: -39°   Ceiling: 2000
Heat Index: -15°   Visibility: 5mi
Dew Point: -22°   Wind: 16mph
Humidity: 70%   Direction: 320°NW
Pressure: 30.04"   Gusts: 22mph
Location:  67.44°N, 134.88°W
Report Text: CYKD 252000Z 32014G19KT 5SM -SN DRSN OVC020 M26/M30 A3004 RMK SC8 -26.1/-26.5/0.4/37 MUCHLOOSE LASTOBS/NEXT 261400Z SLP173
Loading
Personal Weather Stations






























Interactive Weather Map New forecast layout! Learn more

10-Day Weather Forecast

Advertisements
Track Severe Weather on mobile